Time;durP1;ratioP1;P1;durP2;ratioP2;P2;SDS_P1;SDS_P2;PMS_P1;PMS_P2;Temp;Humidity;BMP_temperature;BMP_pressure;BME280_temperature;BME280_humidity;BME280_pressure;Samples;Min_cycle;Max_cycle;Signal;HPM_P1;HPM_P2
2023/04/26 00:01:47;;;;;;;4.47;3.05;;;;;;;7.85;100.00;92190.38;5130551;27;20094;-68
2023/04/26 00:04:13;;;;;;;8.38;6.00;;;;;;;7.80;100.00;92187.69;5129597;27;20047;-69
2023/04/26 00:06:40;;;;;;;5.35;4.30;;;;;;;7.79;100.00;92188.69;5130533;27;20508;-69
2023/04/26 00:09:07;;;;;;;5.40;4.10;;;;;;;7.80;100.00;92176.66;5129367;27;20048;-69
2023/04/26 00:11:34;;;;;;;5.25;3.50;;;;;;;7.75;100.00;92175.56;5130342;27;20039;-69
2023/04/26 00:14:00;;;;;;;5.45;4.00;;;;;;;7.72;100.00;92172.63;5130054;27;20058;-69
2023/04/26 00:16:28;;;;;;;7.53;4.85;;;;;;;7.67;100.00;92175.06;5130091;27;20043;-69
2023/04/26 00:18:55;;;;;;;7.03;5.30;;;;;;;7.60;100.00;92165.72;5130115;27;20088;-69
2023/04/26 00:21:22;;;;;;;6.75;5.35;;;;;;;7.52;100.00;92158.34;5130238;27;20039;-68
2023/04/26 00:23:49;;;;;;;8.40;4.80;;;;;;;7.51;100.00;92163.69;5130014;27;20050;-68
2023/04/26 00:26:15;;;;;;;7.20;5.53;;;;;;;7.48;100.00;92165.69;5129838;27;20419;-69
2023/04/26 00:28:42;;;;;;;7.10;5.22;;;;;;;7.46;100.00;92160.00;5130015;27;20050;-68
2023/04/26 00:31:14;;;;;;;8.27;5.97;;;;;;;7.42;100.00;92156.31;5129896;27;20092;-68
2023/04/26 00:33:42;;;;;;;6.20;4.68;;;;;;;7.37;100.00;92157.97;5129814;27;20422;-68
2023/04/26 00:36:09;;;;;;;5.80;4.38;;;;;;;7.34;100.00;92165.06;5129799;27;20418;-68
2023/04/26 00:38:37;;;;;;;5.45;4.00;;;;;;;7.30;100.00;92169.03;5129457;27;20103;-68
2023/04/26 00:41:04;;;;;;;4.60;3.15;;;;;;;7.25;100.00;92163.00;5129993;27;20054;-69
2023/04/26 00:43:31;;;;;;;5.50;4.15;;;;;;;7.17;100.00;92169.22;5129662;27;20070;-69
2023/04/26 00:45:58;;;;;;;6.60;4.78;;;;;;;7.14;100.00;92157.66;5129549;27;20613;-69
2023/04/26 00:48:25;;;;;;;6.22;4.57;;;;;;;7.16;100.00;92162.50;5129758;27;20432;-68
2023/04/26 00:50:53;;;;;;;6.22;4.38;;;;;;;7.12;100.00;92156.28;5129195;27;20429;-69
2023/04/26 00:53:21;;;;;;;5.60;4.32;;;;;;;7.11;100.00;92152.16;5128784;27;20055;-68
2023/04/26 00:55:48;;;;;;;5.00;3.97;;;;;;;7.09;100.00;92165.94;5129164;27;20042;-68
2023/04/26 00:58:14;;;;;;;8.65;5.15;;;;;;;7.08;100.00;92164.38;5129284;27;20052;-69
2023/04/26 01:00:41;;;;;;;6.15;4.70;;;;;;;7.04;100.00;92178.56;5129254;27;20088;-69
2023/04/26 01:03:08;;;;;;;5.20;4.10;;;;;;;6.97;100.00;92172.75;5129280;27;20555;-68
2023/04/26 01:05:35;;;;;;;5.40;3.60;;;;;;;6.98;100.00;92174.31;5129177;27;20043;-68
2023/04/26 01:08:04;;;;;;;5.32;3.75;;;;;;;6.92;100.00;92167.50;5129190;27;20047;-68
2023/04/26 01:10:32;;;;;;;7.43;4.70;;;;;;;6.89;100.00;92168.69;5129087;27;20802;-69
2023/04/26 01:13:00;;;;;;;5.85;3.55;;;;;;;6.91;100.00;92148.84;5128158;27;20100;-68
2023/04/26 01:15:27;;;;;;;4.55;3.53;;;;;;;6.89;100.00;92155.16;5129242;27;20093;-68
2023/04/26 01:17:54;;;;;;;4.72;3.60;;;;;;;6.88;100.00;92158.69;5128948;27;20433;-68
2023/04/26 01:20:20;;;;;;;6.07;3.67;;;;;;;6.76;100.00;92145.88;5129039;27;20064;-68
2023/04/26 01:22:49;;;;;;;6.65;4.80;;;;;;;6.79;100.00;92158.19;5128729;27;20050;-68
2023/04/26 01:25:16;;;;;;;6.72;5.30;;;;;;;6.75;100.00;92173.16;5128745;27;20039;-69
2023/04/26 01:27:43;;;;;;;6.50;5.20;;;;;;;6.77;100.00;92175.50;5129305;27;20046;-69
2023/04/26 01:30:11;;;;;;;6.53;4.90;;;;;;;6.72;100.00;92176.16;5129084;27;20047;-68
2023/04/26 01:32:38;;;;;;;9.27;6.68;;;;;;;6.72;100.00;92175.34;5128551;27;20096;-69
2023/04/26 01:35:06;;;;;;;8.32;6.28;;;;;;;6.65;100.00;92173.66;5128954;27;20051;-68
2023/04/26 01:37:33;;;;;;;10.70;6.63;;;;;;;6.67;100.00;92168.34;5125860;27;20043;-68
2023/04/26 01:40:01;;;;;;;12.20;6.63;;;;;;;6.67;100.00;92168.34;5128502;27;20107;-68
2023/04/26 01:42:28;;;;;;;10.35;7.22;;;;;;;6.65;100.00;92163.44;5128445;27;20047;-68
2023/04/26 01:44:54;;;;;;;15.15;10.30;;;;;;;6.32;100.00;92161.97;5128462;27;20050;-68
2023/04/26 01:47:21;;;;;;;17.50;13.32;;;;;;;6.24;100.00;92149.47;5128283;27;20039;-68
2023/04/26 01:49:48;;;;;;;18.38;13.07;;;;;;;6.23;100.00;92151.25;5128899;27;20050;-68
2023/04/26 01:52:15;;;;;;;15.52;11.82;;;;;;;6.16;100.00;92145.44;5127926;27;20051;-68
2023/04/26 01:54:42;;;;;;;10.75;8.18;;;;;;;5.95;100.00;92143.97;5128378;27;20031;-68
2023/04/26 01:57:10;;;;;;;8.30;6.40;;;;;;;5.86;100.00;92153.66;5128580;27;20511;-68
2023/04/26 01:59:37;;;;;;;9.00;6.82;;;;;;;5.66;100.00;92148.69;5128184;27;20050;-68
2023/04/26 02:02:04;;;;;;;8.82;6.63;;;;;;;5.49;100.00;92149.16;5127971;27;20522;-68
2023/04/26 02:04:31;;;;;;;9.35;6.65;;;;;;;5.57;100.00;92155.78;5128586;27;20403;-68
2023/04/26 02:06:57;;;;;;;11.00;7.07;;;;;;;5.82;100.00;92148.19;5127771;27;20059;-68
2023/04/26 02:09:24;;;;;;;11.20;7.80;;;;;;;6.04;100.00;92155.53;5128522;27;20104;-68
2023/04/26 02:11:51;;;;;;;13.73;8.88;;;;;;;6.18;100.00;92147.75;5128305;28;20081;-68
2023/04/26 02:14:19;;;;;;;10.00;7.55;;;;;;;6.31;100.00;92146.88;5127849;28;20124;-68
2023/04/26 02:16:46;;;;;;;9.15;7.30;;;;;;;6.42;100.00;92158.94;5127940;28;20051;-68
2023/04/26 02:19:13;;;;;;;11.57;8.65;;;;;;;6.51;100.00;92156.91;5127980;28;20055;-68
2023/04/26 02:21:54;;;;;;;11.90;8.23;;;;;;;6.53;100.00;92153.16;5127889;28;20046;-68
2023/04/26 02:24:22;;;;;;;11.73;9.10;;;;;;;6.62;100.00;92151.09;5127907;27;20544;-68
2023/04/26 02:26:48;;;;;;;11.70;8.45;;;;;;;6.62;100.00;92151.09;5131966;27;20047;-68
2023/04/26 02:29:15;;;;;;;18.73;11.30;;;;;;;6.67;100.00;92151.25;5132044;27;20047;-68
2023/04/26 02:31:43;;;;;;;16.30;10.88;;;;;;;6.75;100.00;92144.31;5132432;27;20095;-68
2023/04/26 02:34:10;;;;;;;25.60;16.88;;;;;;;6.85;100.00;92146.38;5129146;27;20051;-68
2023/04/26 02:36:37;;;;;;;16.98;12.10;;;;;;;6.90;100.00;92141.41;5132197;27;20394;-68
2023/04/26 02:39:04;;;;;;;13.57;9.52;;;;;;;6.83;100.00;92126.16;5131973;27;20044;-68
2023/04/26 02:41:31;;;;;;;10.23;7.70;;;;;;;6.78;100.00;92116.59;5131969;27;20406;-68
2023/04/26 02:43:58;;;;;;;11.55;8.88;;;;;;;6.74;100.00;92107.00;5132008;27;20083;-68
2023/04/26 02:46:25;;;;;;;10.45;8.07;;;;;;;6.56;100.00;92106.00;5131834;27;20529;-68
2023/04/26 02:48:53;;;;;;;10.55;8.25;;;;;;;6.51;100.00;92111.75;5131527;27;20514;-68
2023/04/26 02:51:20;;;;;;;11.43;7.93;;;;;;;6.35;100.00;92095.22;5131512;27;20050;-68
2023/04/26 02:53:47;;;;;;;12.77;8.20;;;;;;;6.39;100.00;92104.03;5131853;27;20051;-68
2023/04/26 02:56:13;;;;;;;10.98;7.88;;;;;;;6.48;100.00;92103.75;5131811;27;20047;-68
2023/04/26 02:58:40;;;;;;;12.18;8.27;;;;;;;6.54;100.00;92093.47;5131466;27;20043;-68
2023/04/26 03:01:07;;;;;;;18.65;12.10;;;;;;;6.54;100.00;92095.25;5131797;27;20051;-68
2023/04/26 03:03:35;;;;;;;18.27;11.95;;;;;;;6.59;100.00;92090.28;5131407;27;20256;-68
2023/04/26 03:06:04;;;;;;;17.20;10.95;;;;;;;6.62;100.00;92089.84;5131309;27;20058;-68
2023/04/26 03:08:31;;;;;;;15.73;11.00;;;;;;;6.67;100.00;92089.22;5127173;27;20642;-68
2023/04/26 03:10:58;;;;;;;17.67;10.82;;;;;;;6.70;100.00;92099.00;5131338;27;20163;-68
2023/04/26 03:13:25;;;;;;;15.15;10.75;;;;;;;6.74;100.00;92092.47;5131263;27;20494;-69
2023/04/26 03:15:52;;;;;;;12.70;9.48;;;;;;;6.76;100.00;92102.50;5131455;27;20076;-69
2023/04/26 03:18:19;;;;;;;11.90;8.60;;;;;;;6.77;100.00;92104.81;5130777;27;20043;-68
2023/04/26 03:20:46;;;;;;;13.93;8.77;;;;;;;6.79;100.00;92109.69;5131911;27;20455;-68
2023/04/26 03:23:14;;;;;;;14.95;9.20;;;;;;;6.77;100.00;92096.38;5102357;27;20127;-68
2023/04/26 03:25:41;;;;;;;21.80;13.20;;;;;;;6.86;100.00;92107.88;5121635;27;20043;-68
2023/04/26 03:28:08;;;;;;;22.90;13.98;;;;;;;6.90;100.00;92114.09;5130994;27;20556;-68
2023/04/26 03:30:34;;;;;;;20.98;12.50;;;;;;;6.95;100.00;92119.34;5131105;27;20092;-68
2023/04/26 03:33:01;;;;;;;16.67;11.13;;;;;;;6.92;100.00;92117.22;5130312;27;20096;-68
2023/04/26 03:35:28;;;;;;;14.68;10.55;;;;;;;6.88;100.00;92108.44;5131048;27;20069;-68
2023/04/26 03:37:55;;;;;;;12.57;9.93;;;;;;;6.84;100.00;92103.97;5130690;27;20491;-68
2023/04/26 03:40:23;;;;;;;13.77;9.02;;;;;;;6.88;100.00;92107.63;5130323;27;20047;-69
2023/04/26 03:42:50;;;;;;;12.50;9.68;;;;;;;6.88;100.00;92117.84;5130610;27;20039;-68
2023/04/26 03:45:17;;;;;;;12.93;9.10;;;;;;;6.92;100.00;92112.13;5130713;27;20590;-68
2023/04/26 03:47:44;;;;;;;11.70;8.90;;;;;;;6.99;100.00;92113.81;5130183;27;20099;-68
2023/04/26 03:50:11;;;;;;;11.55;8.43;;;;;;;7.00;100.00;92117.94;5130804;27;20092;-68
2023/04/26 03:52:37;;;;;;;13.65;8.50;;;;;;;7.01;100.00;92114.38;5130034;27;20456;-68
2023/04/26 03:55:07;;;;;;;12.45;8.60;;;;;;;7.08;100.00;92117.63;5130731;27;20055;-68
2023/04/26 03:57:36;;;;;;;19.08;13.63;;;;;;;7.07;100.00;92127.06;5130519;27;20089;-68
2023/04/26 04:00:08;;;;;;;16.45;11.93;;;;;;;7.11;100.00;92129.19;5130740;27;20043;-68
2023/04/26 04:02:35;;;;;;;10.65;7.32;;;;;;;6.98;100.00;92136.00;5130033;27;20130;-68
2023/04/26 04:05:02;;;;;;;8.95;6.85;;;;;;;6.93;100.00;92134.09;5130001;27;20039;-68
2023/04/26 04:07:31;;;;;;;10.15;7.88;;;;;;;7.02;100.00;92121.03;5129982;27;20496;-68
2023/04/26 04:09:59;;;;;;;13.18;7.97;;;;;;;7.08;100.00;92138.03;5130564;27;20055;-68
2023/04/26 04:12:25;;;;;;;12.48;7.47;;;;;;;7.18;100.00;92145.97;5130573;27;20057;-68
2023/04/26 04:14:54;;;;;;;13.90;9.30;;;;;;;7.27;100.00;92136.25;5130653;27;20043;-68
2023/04/26 04:17:20;;;;;;;18.52;11.77;;;;;;;7.37;100.00;92137.53;5130054;27;20856;-68
2023/04/26 04:19:47;;;;;;;28.83;14.88;;;;;;;7.46;100.00;92143.91;5130098;27;20047;-68
2023/04/26 04:22:14;;;;;;;27.38;15.20;;;;;;;7.25;100.00;92107.59;5130330;27;20112;-68
2023/04/26 04:24:43;;;;;;;23.13;14.02;;;;;;;7.61;100.00;92151.97;5130064;27;20043;-68
2023/04/26 04:27:10;;;;;;;19.20;11.18;;;;;;;7.66;100.00;92158.16;5130210;27;20457;-68
2023/04/26 04:29:37;;;;;;;19.80;12.05;;;;;;;7.73;100.00;92153.78;5123658;27;20048;-68
2023/04/26 04:32:05;;;;;;;18.95;12.00;;;;;;;7.78;100.00;92153.88;5111133;27;20486;-68
2023/04/26 04:34:35;;;;;;;21.40;13.27;;;;;;;7.84;100.00;92165.00;5129568;27;20050;-68
2023/04/26 04:37:03;;;;;;;18.90;12.43;;;;;;;7.88;100.00;92163.59;5129404;27;20047;-68
2023/04/26 04:39:29;;;;;;;18.10;11.80;;;;;;;7.92;100.00;92164.69;5129855;27;20047;-68
2023/04/26 04:41:57;;;;;;;15.75;10.98;;;;;;;7.83;100.00;92164.22;5129644;27;20047;-68
2023/04/26 04:44:25;;;;;;;13.27;9.73;;;;;;;7.60;100.00;92162.38;5129623;27;20055;-68
2023/04/26 04:46:52;;;;;;;84.25;50.17;;;;;;;7.55;100.00;92168.13;5129005;27;20117;-68
2023/04/26 04:49:21;;;;;;;43.63;26.20;;;;;;;7.61;100.00;92171.63;5128480;27;20062;-68
2023/04/26 04:51:47;;;;;;;30.98;20.77;;;;;;;7.68;100.00;92166.41;5129457;27;20046;-68
2023/04/26 04:54:16;;;;;;;29.13;18.92;;;;;;;7.73;100.00;92169.88;5129661;27;20047;-68
2023/04/26 04:56:43;;;;;;;22.30;15.77;;;;;;;7.91;100.00;92173.34;5129579;27;20043;-68
2023/04/26 04:59:10;;;;;;;13.88;10.48;;;;;;;7.88;100.00;92169.47;5128806;27;20051;-68
2023/04/26 05:01:37;;;;;;;15.45;9.45;;;;;;;7.72;100.00;92170.88;5121931;27;20047;-68
2023/04/26 05:04:05;;;;;;;15.25;11.00;;;;;;;7.72;100.00;92162.41;5116089;27;20043;-68
2023/04/26 05:06:33;;;;;;;12.95;9.63;;;;;;;8.02;100.00;92167.50;5129132;27;20392;-68
2023/04/26 05:09:00;;;;;;;12.65;9.13;;;;;;;8.09;100.00;92175.06;5129094;27;20051;-68
2023/04/26 05:11:27;;;;;;;12.57;9.75;;;;;;;8.22;100.00;92171.53;5129186;27;20047;-68
2023/04/26 05:13:54;;;;;;;10.98;8.35;;;;;;;8.24;100.00;92184.88;5127846;27;20411;-68
2023/04/26 05:16:20;;;;;;;11.95;9.25;;;;;;;8.27;100.00;92176.78;5129173;27;20095;-68
2023/04/26 05:18:47;;;;;;;11.15;8.40;;;;;;;8.47;100.00;92182.59;5128689;27;20054;-68
2023/04/26 05:21:14;;;;;;;15.82;10.70;;;;;;;8.57;100.00;92182.84;5129162;27;20050;-68
2023/04/26 05:23:42;;;;;;;12.07;8.73;;;;;;;8.67;100.00;92179.72;5128551;27;20047;-68
2023/04/26 05:26:13;;;;;;;11.02;8.50;;;;;;;8.63;100.00;92191.41;5129140;27;20047;-68
2023/04/26 05:28:40;;;;;;;12.00;8.38;;;;;;;8.81;100.00;92186.16;5128325;27;20552;-68
2023/04/26 05:31:08;;;;;;;16.75;9.90;;;;;;;8.92;100.00;92182.03;5128760;27;20058;-68
2023/04/26 05:33:35;;;;;;;11.57;8.57;;;;;;;8.93;100.00;92187.94;5128805;27;20053;-68
2023/04/26 05:36:02;;;;;;;11.35;8.50;;;;;;;9.08;100.00;92188.25;5128791;27;20039;-68
2023/04/26 05:38:29;;;;;;;9.30;7.13;;;;;;;9.18;100.00;92192.03;5128442;27;20161;-68
2023/04/26 05:40:57;;;;;;;11.18;8.40;;;;;;;9.23;100.00;92189.56;5128460;27;20039;-68
2023/04/26 05:43:23;;;;;;;13.93;8.43;;;;;;;9.28;100.00;92196.56;5128339;27;20047;-68
2023/04/26 05:45:51;;;;;;;16.90;12.32;;;;;;;9.18;100.00;92192.03;5128736;27;20108;-68
2023/04/26 05:48:18;;;;;;;22.33;13.80;;;;;;;9.24;100.00;92196.25;5128394;27;20519;-68
2023/04/26 05:50:45;;;;;;;22.58;13.75;;;;;;;8.76;100.00;92188.63;5128238;27;20503;-68
2023/04/26 05:53:11;;;;;;;28.33;15.25;;;;;;;8.78;100.00;92188.38;5128348;27;20051;-68
2023/04/26 05:55:38;;;;;;;25.55;14.93;;;;;;;8.86;100.00;92194.97;5128167;27;20047;-68
2023/04/26 05:58:06;;;;;;;38.72;16.30;;;;;;;9.07;100.00;92196.16;5127830;27;20397;-68
2023/04/26 06:00:33;;;;;;;45.55;22.27;;;;;;;9.18;100.00;92197.16;5128314;27;20050;-68
2023/04/26 06:03:00;;;;;;;51.22;21.23;;;;;;;9.14;100.00;92196.03;5128509;27;20043;-68
2023/04/26 06:05:27;;;;;;;45.90;21.58;;;;;;;9.47;100.00;92197.19;5128002;27;20507;-68
2023/04/26 06:07:54;;;;;;;55.15;20.45;;;;;;;9.62;100.00;92207.75;5128454;27;20043;-69
2023/04/26 06:10:21;;;;;;;56.17;20.02;;;;;;;9.48;100.00;92201.31;5128307;28;20076;-68
2023/04/26 06:12:48;;;;;;;57.80;19.52;;;;;;;9.70;100.00;92206.59;5127716;28;20043;-68
2023/04/26 06:15:16;;;;;;;49.60;18.55;;;;;;;9.91;100.00;92213.88;5127890;28;20495;-68
2023/04/26 06:17:43;;;;;;;51.60;17.42;;;;;;;9.98;100.00;92211.94;5127632;28;20051;-68
2023/04/26 06:20:10;;;;;;;46.15;15.80;;;;;;;10.07;100.00;92209.78;5127906;28;20088;-68
2023/04/26 06:22:37;;;;;;;46.65;16.33;;;;;;;9.96;100.00;92204.47;5128395;28;20047;-68
2023/04/26 06:25:05;;;;;;;30.88;12.52;;;;;;;9.86;100.00;92191.50;5128248;28;20401;-68
2023/04/26 06:27:32;;;;;;;31.15;12.40;;;;;;;10.21;100.00;92213.63;5127879;28;20627;-68
2023/04/26 06:29:59;;;;;;;30.13;13.07;;;;;;;10.38;100.00;92203.34;5127728;28;20893;-68
2023/04/26 06:32:27;;;;;;;29.63;13.02;;;;;;;10.34;100.00;92211.75;5128167;28;20042;-68
2023/04/26 06:34:54;;;;;;;30.75;13.32;;;;;;;10.51;100.00;92214.38;5128312;28;20043;-68
2023/04/26 06:37:21;;;;;;;24.73;11.65;;;;;;;10.41;100.00;92223.44;5127819;28;20047;-68
2023/04/26 06:39:48;;;;;;;22.75;10.85;;;;;;;10.24;100.00;92225.97;5128242;28;20088;-68
2023/04/26 06:42:15;;;;;;;21.17;11.48;;;;;;;10.27;100.00;92224.72;5116123;28;20051;-68
2023/04/26 06:44:42;;;;;;;21.25;11.00;;;;;;;10.23;100.00;92226.22;5126255;28;20400;-68
2023/04/26 06:47:10;;;;;;;17.27;9.75;;;;;;;10.19;100.00;92230.25;5128169;28;20047;-68
2023/04/26 06:49:38;;;;;;;14.82;8.20;;;;;;;9.57;100.00;92235.06;5127869;28;20479;-68
2023/04/26 06:52:05;;;;;;;10.57;7.82;;;;;;;9.39;100.00;92238.56;5127775;28;20050;-68
2023/04/26 06:54:33;;;;;;;10.27;6.70;;;;;;;9.32;100.00;92246.38;5127897;28;20051;-68
2023/04/26 06:56:59;;;;;;;9.98;6.65;;;;;;;9.02;100.00;92249.88;5127037;28;20047;-68
2023/04/26 06:59:26;;;;;;;9.15;6.80;;;;;;;8.92;100.00;92252.97;5127505;28;20078;-68
2023/04/26 07:01:54;;;;;;;9.10;7.15;;;;;;;8.76;100.00;92254.41;5127573;28;20051;-68
2023/04/26 07:04:20;;;;;;;10.27;7.30;;;;;;;8.80;100.00;92260.66;5127672;28;20131;-68
2023/04/26 07:06:49;;;;;;;6.88;5.75;;;;;;;8.73;100.00;92263.31;5127411;28;20051;-68
2023/04/26 07:09:15;;;;;;;6.68;5.18;;;;;;;8.34;100.00;92275.69;5127498;28;20055;-68
2023/04/26 07:11:42;;;;;;;7.15;5.32;;;;;;;8.20;100.00;92267.41;5128460;27;20043;-68
2023/04/26 07:14:10;;;;;;;6.75;4.97;;;;;;;8.22;100.00;92273.88;5131145;27;20051;-68
2023/04/26 07:16:37;;;;;;;7.75;6.70;;;;;;;8.01;100.00;92282.81;5130922;27;20096;-68
2023/04/26 07:19:05;;;;;;;6.80;5.82;;;;;;;8.03;100.00;92275.69;5131586;27;20055;-68
2023/04/26 07:21:32;;;;;;;7.03;5.68;;;;;;;8.18;100.00;92262.50;5130848;27;20122;-68
2023/04/26 07:24:00;;;;;;;7.60;4.18;;;;;;;8.09;100.00;92279.16;5130927;27;20043;-68
2023/04/26 07:26:26;;;;;;;7.47;5.43;;;;;;;8.32;100.00;92272.56;5130458;27;20046;-68
2023/04/26 07:28:53;;;;;;;8.10;5.65;;;;;;;8.40;100.00;92275.59;5121786;27;20057;-68
2023/04/26 07:31:20;;;;;;;5.97;4.22;;;;;;;8.54;100.00;92278.78;5126629;27;20069;-68
2023/04/26 07:33:47;;;;;;;6.90;5.15;;;;;;;8.58;100.00;92266.31;5130922;27;20046;-68
2023/04/26 07:36:14;;;;;;;6.82;4.63;;;;;;;8.86;100.00;92270.00;5130547;27;20091;-68
2023/04/26 07:38:41;;;;;;;5.97;4.68;;;;;;;8.98;100.00;92270.00;5130064;27;20091;-68
2023/04/26 07:41:09;;;;;;;5.30;4.18;;;;;;;8.99;100.00;92281.03;5130549;27;20043;-68
2023/04/26 07:43:36;;;;;;;5.30;4.15;;;;;;;9.14;100.00;92280.59;5130705;27;20092;-68
2023/04/26 07:46:02;;;;;;;5.72;3.97;;;;;;;9.38;100.00;92283.13;5131055;27;20100;-68
2023/04/26 07:48:29;;;;;;;6.00;3.92;;;;;;;9.19;100.00;92285.81;5127314;27;20511;-69
2023/04/26 07:50:56;;;;;;;5.03;4.10;;;;;;;9.55;100.00;92288.34;5126630;27;20066;-69
2023/04/26 07:53:23;;;;;;;6.32;3.78;;;;;;;9.92;100.00;92277.78;5130159;27;20100;-69
2023/04/26 07:55:51;;;;;;;5.03;4.00;;;;;;;10.38;100.00;92274.47;5130575;27;20043;-69
2023/04/26 07:58:20;;;;;;;5.45;3.95;;;;;;;9.92;100.00;92277.78;5129838;27;20051;-68
2023/04/26 08:00:47;;;;;;;4.88;3.47;;;;;;;9.56;100.00;92282.22;5130731;27;20039;-69
2023/04/26 08:03:18;;;;;;;5.57;3.53;;;;;;;9.37;100.00;92279.78;5130729;27;20141;-69
2023/04/26 08:05:45;;;;;;;6.68;4.07;;;;;;;9.44;100.00;92275.31;5129590;27;20139;-69
2023/04/26 08:08:12;;;;;;;8.77;4.05;;;;;;;9.87;100.00;92280.25;5110226;27;20044;-69
2023/04/26 08:10:40;;;;;;;4.97;3.58;;;;;;;10.20;100.00;92262.59;5126080;27;20078;-69
2023/04/26 08:13:07;;;;;;;7.03;4.20;;;;;;;10.25;100.00;92278.88;5129605;27;20507;-69
2023/04/26 08:15:35;;;;;;;5.20;2.80;;;;;;;10.25;100.00;92273.75;5130175;27;20051;-69
2023/04/26 08:18:02;;;;;;;6.20;3.60;;;;;;;10.03;100.00;92271.03;5129271;27;20043;-69
2023/04/26 08:20:29;;;;;;;5.28;3.58;;;;;;;9.81;100.00;92271.66;5129649;27;20055;-69
2023/04/26 08:22:56;;;;;;;4.35;3.20;;;;;;;9.97;100.00;92270.19;5128655;27;20043;-69
2023/04/26 08:25:24;;;;;;;3.47;2.45;;;;;;;9.88;100.00;92274.09;5129835;27;20047;-69
2023/04/26 08:27:51;;;;;;;4.00;2.75;;;;;;;9.91;100.00;92278.00;5130160;27;20053;-70
2023/04/26 08:30:18;;;;;;;6.20;3.17;;;;;;;10.14;100.00;92275.34;5129511;27;20580;-69
2023/04/26 08:32:46;;;;;;;3.13;2.38;;;;;;;10.14;97.76;92275.34;5130176;27;20119;-70
2023/04/26 08:35:13;;;;;;;3.72;1.92;;;;;;;10.28;93.46;92280.22;5129656;27;20043;-69
2023/04/26 08:37:40;;;;;;;2.65;1.88;;;;;;;10.02;100.00;92277.97;5129352;27;20419;-70
2023/04/26 08:40:09;;;;;;;3.28;2.05;;;;;;;10.13;99.24;92249.91;5129482;27;20096;-69
2023/04/26 08:42:39;;;;;;;3.70;2.70;;;;;;;10.25;100.00;92275.53;5129339;27;20047;-69
2023/04/26 08:45:10;;;;;;;7.60;3.05;;;;;;;10.23;97.91;92277.56;5129318;27;20051;-69
2023/04/26 08:47:43;;;;;;;3.33;2.30;;;;;;;10.36;98.07;92273.91;5129238;27;20126;-69
2023/04/26 08:50:13;;;;;;;2.20;1.58;;;;;;;10.43;92.39;92264.31;5129205;27;20043;-69
2023/04/26 08:52:41;;;;;;;2.65;1.75;;;;;;;10.23;90.14;92264.72;5128135;27;20086;-69
2023/04/26 08:55:09;;;;;;;4.47;2.40;;;;;;;10.39;98.10;92273.44;5129517;27;20092;-69
2023/04/26 08:57:36;;;;;;;5.70;3.58;;;;;;;10.45;99.85;92274.34;5128907;27;20521;-69
2023/04/26 09:00:06;;;;;;;3.42;2.40;;;;;;;10.33;94.25;92259.78;5129157;27;20055;-69
2023/04/26 09:02:33;;;;;;;4.22;2.80;;;;;;;10.19;96.45;92277.25;5128978;27;20046;-69
2023/04/26 09:05:00;;;;;;;3.50;2.22;;;;;;;10.31;98.27;92266.91;5129127;27;20047;-69
2023/04/26 09:07:32;;;;;;;4.50;2.75;;;;;;;10.74;100.00;92261.44;5128403;27;20476;-69
2023/04/26 09:10:00;;;;;;;4.93;1.88;;;;;;;11.18;95.86;92260.78;5129040;27;20061;-69
2023/04/26 09:12:27;;;;;;;2.25;1.50;;;;;;;11.28;89.63;92266.06;5129273;27;20039;-69
2023/04/26 09:14:55;;;;;;;3.78;2.83;;;;;;;10.95;93.70;92263.31;5128675;27;20050;-70
2023/04/26 09:17:26;;;;;;;4.80;2.38;;;;;;;11.15;92.49;92271.56;5128886;27;20086;-69
2023/04/26 09:19:53;;;;;;;3.97;1.92;;;;;;;11.20;93.27;92264.69;5128680;27;20422;-69
2023/04/26 09:22:30;;;;;;;3.15;1.92;;;;;;;11.49;92.07;92263.75;5128140;27;20051;-69
2023/04/26 09:24:57;;;;;;;3.85;2.05;;;;;;;11.56;88.29;92266.13;5128715;27;20050;-69
2023/04/26 09:27:32;;;;;;;2.92;1.95;;;;;;;11.73;91.58;92272.03;5128567;27;20039;-69
2023/04/26 09:30:04;;;;;;;2.42;1.67;;;;;;;11.92;88.48;92256.28;5113277;27;20051;-69
2023/04/26 09:32:47;;;;;;;11.60;6.15;;;;;;;11.56;92.75;92272.06;5128939;27;20495;-69
2023/04/26 09:35:26;;;;;;;20.58;9.77;;;;;;;10.96;85.71;92264.88;5128134;27;20400;-70
2023/04/26 09:37:57;;;;;;;5.07;2.65;;;;;;;10.89;89.01;92268.59;5128237;27;20119;-70
2023/04/26 09:40:27;;;;;;;4.35;2.45;;;;;;;11.34;91.03;92259.97;5129001;27;20104;-69
2023/04/26 09:43:02;;;;;;;4.50;2.90;;;;;;;11.26;85.09;92251.88;5123070;27;20406;-69
2023/04/26 09:45:30;;;;;;;16.65;8.07;;;;;;;11.46;87.68;92264.22;5121257;27;20645;-69
2023/04/26 09:48:13;;;;;;;7.95;3.72;;;;;;;11.33;86.50;92257.63;5128205;27;20189;-70
2023/04/26 09:50:39;;;;;;;3.50;1.90;;;;;;;11.17;87.25;92256.66;5127601;27;20406;-69
2023/04/26 09:53:08;;;;;;;4.70;3.10;;;;;;;11.15;86.28;92249.19;5127932;27;20562;-70
2023/04/26 09:55:35;;;;;;;5.55;2.50;;;;;;;11.19;89.98;92249.47;5127891;27;20053;-70
2023/04/26 09:58:08;;;;;;;4.55;2.13;;;;;;;11.19;84.34;92250.28;5127852;27;20043;-70
2023/04/26 10:00:39;;;;;;;3.90;2.40;;;;;;;11.04;84.45;92250.06;5128213;27;20430;-70
2023/04/26 10:03:08;;;;;;;3.78;1.60;;;;;;;10.96;85.56;92244.31;5126851;27;20061;-70
2023/04/26 10:05:36;;;;;;;2.85;1.52;;;;;;;11.13;86.95;92251.22;5128115;27;20554;-69
2023/04/26 10:08:03;;;;;;;6.25;2.08;;;;;;;11.25;87.89;92229.78;5128360;27;20081;-69
2023/04/26 10:10:32;;;;;;;2.55;1.70;;;;;;;11.39;83.96;92250.78;5128469;27;20047;-69
2023/04/26 10:12:59;;;;;;;3.03;1.60;;;;;;;11.39;81.20;92259.25;5128157;28;20043;-69
2023/04/26 10:15:26;;;;;;;2.75;1.70;;;;;;;11.12;83.73;92254.03;5128029;28;20047;-69
2023/04/26 10:17:53;;;;;;;2.92;1.60;;;;;;;10.99;85.17;92249.97;5128372;28;20088;-69
2023/04/26 10:20:22;;;;;;;4.30;1.52;;;;;;;11.23;84.29;92259.06;5127871;28;20039;-69
2023/04/26 10:22:53;;;;;;;3.55;1.90;;;;;;;11.41;82.82;92238.44;5101724;28;20457;-69
2023/04/26 10:25:20;;;;;;;3.30;1.90;;;;;;;11.57;81.14;92250.47;5112111;28;20051;-69
2023/04/26 10:27:50;;;;;;;3.28;1.80;;;;;;;11.94;79.57;92238.78;5127365;28;20063;-70
2023/04/26 10:30:18;;;;;;;2.42;1.50;;;;;;;11.98;77.98;92250.16;5127762;28;20463;-69
2023/04/26 10:33:14;;;;;;;3.03;1.65;;;;;;;12.02;79.60;92253.03;5127294;28;20050;-69
2023/04/26 10:36:06;;;;;;;1.75;1.20;;;;;;;11.90;76.88;92256.50;5125577;28;20092;-70
2023/04/26 10:38:34;;;;;;;3.35;1.50;;;;;;;11.78;77.99;92253.28;5126735;28;20400;-69
2023/04/26 10:41:32;;;;;;;2.88;1.70;;;;;;;11.56;75.76;92251.50;5108634;28;20044;-70
2023/04/26 10:44:16;;;;;;;3.90;1.45;;;;;;;11.56;76.99;92245.56;5127887;28;20109;-70
2023/04/26 10:46:43;;;;;;;2.50;1.48;;;;;;;11.12;74.28;92234.25;5128213;27;20407;-69
2023/04/26 10:49:27;;;;;;;2.55;1.70;;;;;;;11.30;76.92;92252.97;5131800;27;20458;-69
2023/04/26 10:52:15;;;;;;;3.38;1.20;;;;;;;11.41;76.15;92249.53;5131672;27;20054;-69
2023/04/26 10:54:55;;;;;;;3.08;1.88;;;;;;;11.92;77.63;92243.41;5130759;27;20403;-69
2023/04/26 10:57:25;;;;;;;3.60;2.15;;;;;;;11.87;74.15;92249.28;5106210;28;20068;-69
2023/04/26 11:00:20;;;;;;;3.28;1.63;;;;;;;11.32;72.56;92243.22;5130215;28;20059;-69
2023/04/26 11:02:54;;;;;;;3.38;1.50;;;;;;;11.59;76.86;92252.81;5129942;28;20583;-69
2023/04/26 11:05:34;;;;;;;4.57;1.80;;;;;;;11.39;72.33;92227.63;5129873;28;20039;-69
2023/04/26 11:08:05;;;;;;;3.47;1.30;;;;;;;11.90;71.42;92253.19;5129937;28;20054;-69
2023/04/26 11:10:32;;;;;;;4.57;2.33;;;;;;;11.95;70.36;92258.34;5130197;28;20047;-70
2023/04/26 11:13:03;;;;;;;2.42;1.63;;;;;;;11.90;69.72;92248.78;5116024;28;20458;-70
2023/04/26 11:15:32;;;;;;;3.92;1.92;;;;;;;11.56;70.23;92243.78;5116527;28;20050;-70
2023/04/26 11:18:01;;;;;;;3.78;2.20;;;;;;;11.96;72.12;92238.56;5129262;28;20058;-70
2023/04/26 11:20:30;;;;;;;3.13;1.60;;;;;;;12.24;71.83;92234.22;5129842;28;20051;-70
2023/04/26 11:22:57;;;;;;;5.90;2.83;;;;;;;12.27;70.04;92244.78;5129727;28;20476;-70
2023/04/26 11:25:25;;;;;;;3.63;1.50;;;;;;;11.49;69.71;92225.19;5130042;28;20074;-70
2023/04/26 11:27:57;;;;;;;5.15;2.03;;;;;;;11.78;71.95;92245.56;5129381;28;20507;-70
2023/04/26 11:30:24;;;;;;;3.83;2.05;;;;;;;11.52;72.32;92237.56;5130006;28;20055;-70
2023/04/26 11:32:52;;;;;;;2.88;1.77;;;;;;;11.46;72.39;92241.09;5128925;28;20050;-70